Time;durP1;ratioP1;P1;durP2;ratioP2;P2;SDS_P1;SDS_P2;PMS_P1;PMS_P2;Temp;Humidity;BMP_temperature;BMP_pressure;BME280_temperature;BME280_humidity;BME280_pressure;Samples;Min_cycle;Max_cycle;Signal;HPM_P1;HPM_P2
2021/03/01 00:00:30;;;;;;;19.63;13.93;;;;;;;;;;5096475;28;20020;-62
2021/03/01 00:02:56;;;;;;;20.15;14.07;;;;;;;;;;5096442;28;20027;-62
2021/03/01 00:05:22;;;;;;;19.63;13.60;;;;;;;;;;5096368;28;20024;-62
2021/03/01 00:07:48;;;;;;;19.80;14.75;;;;;;;;;;5096321;28;20472;-62
2021/03/01 00:10:14;;;;;;;20.77;14.90;;;;;;;;;;5096254;28;20032;-62
2021/03/01 00:12:40;;;;;;;21.30;14.57;;;;;;;;;;5096176;28;20475;-62
2021/03/01 00:15:08;;;;;;;20.20;14.70;;;;;;;;;;5096115;28;20024;-62
2021/03/01 00:17:44;;;;;;;20.30;14.70;;;;;;;;;;5095930;28;20388;-62
2021/03/01 00:20:12;;;;;;;20.20;13.65;;;;;;;;;;5095641;28;20044;-63
2021/03/01 00:22:38;;;;;;;19.48;14.77;;;;;;;;;;5095887;28;20231;-62
2021/03/01 00:25:04;;;;;;;19.92;14.05;;;;;;;;;;5095888;28;20028;-63
2021/03/01 00:27:29;;;;;;;19.38;14.75;;;;;;;;;;5094205;28;20103;-63
2021/03/01 00:29:55;;;;;;;21.23;14.95;;;;;;;;;;5094734;28;20166;-62
2021/03/01 00:32:20;;;;;;;20.33;14.18;;;;;;;;;;5095697;28;20468;-62
2021/03/01 00:34:46;;;;;;;21.52;14.55;;;;;;;;;;5095627;28;20039;-63
2021/03/01 00:37:11;;;;;;;20.17;14.52;;;;;;;;;;5095569;28;20024;-63
2021/03/01 00:39:37;;;;;;;21.58;15.52;;;;;;;;;;5094323;28;20020;-62
2021/03/01 00:42:02;;;;;;;22.10;15.27;;;;;;;;;;5094322;28;20087;-62
2021/03/01 00:44:28;;;;;;;20.70;15.25;;;;;;;;;;5095624;28;20388;-62
2021/03/01 00:46:53;;;;;;;20.40;14.10;;;;;;;;;;5095628;28;20047;-62
2021/03/01 00:49:21;;;;;;;21.52;14.60;;;;;;;;;;5095404;28;20408;-63
2021/03/01 00:51:46;;;;;;;19.73;14.07;;;;;;;;;;5095423;28;20070;-63
2021/03/01 00:54:17;;;;;;;23.02;15.43;;;;;;;;;;5093692;28;20040;-63
2021/03/01 00:56:50;;;;;;;21.40;14.80;;;;;;;;;;5094320;28;20066;-63
2021/03/01 00:59:16;;;;;;;19.55;14.15;;;;;;;;;;5093891;28;20024;-62
2021/03/01 01:01:50;;;;;;;20.90;14.10;;;;;;;;;;5093982;28;20027;-62
2021/03/01 01:04:15;;;;;;;22.67;14.50;;;;;;;;;;5093967;28;20388;-63
2021/03/01 01:06:41;;;;;;;22.27;15.18;;;;;;;;;;5095085;28;20035;-62
2021/03/01 01:09:06;;;;;;;20.60;13.80;;;;;;;;;;5093900;28;20161;-62
2021/03/01 01:11:33;;;;;;;21.98;14.80;;;;;;;;;;5095144;28;20027;-62
2021/03/01 01:13:58;;;;;;;22.08;14.98;;;;;;;;;;5095011;28;20496;-63
2021/03/01 01:16:24;;;;;;;20.75;14.05;;;;;;;;;;5094906;28;20093;-63
2021/03/01 01:18:51;;;;;;;20.95;14.88;;;;;;;;;;5094430;28;20052;-63
2021/03/01 01:21:17;;;;;;;20.17;13.73;;;;;;;;;;5094585;28;20472;-63
2021/03/01 01:23:42;;;;;;;19.35;14.80;;;;;;;;;;5093668;28;20126;-62
2021/03/01 01:26:07;;;;;;;20.15;14.02;;;;;;;;;;5094667;28;20493;-63
2021/03/01 01:28:33;;;;;;;19.77;13.95;;;;;;;;;;5093379;28;20057;-62
2021/03/01 01:30:58;;;;;;;21.33;14.00;;;;;;;;;;5094693;28;20034;-62
2021/03/01 01:33:25;;;;;;;20.38;13.77;;;;;;;;;;5094588;28;20044;-62
2021/03/01 01:35:50;;;;;;;20.20;13.15;;;;;;;;;;5094417;28;20361;-62
2021/03/01 01:38:16;;;;;;;21.98;14.63;;;;;;;;;;5094557;28;20032;-62
2021/03/01 01:40:41;;;;;;;22.20;13.90;;;;;;;;;;5094473;28;20020;-63
2021/03/01 01:43:07;;;;;;;20.88;13.68;;;;;;;;;;5094441;28;20028;-63
2021/03/01 01:45:33;;;;;;;21.50;14.50;;;;;;;;;;5094404;28;20027;-63
2021/03/01 01:47:58;;;;;;;19.52;13.00;;;;;;;;;;5094341;28;20024;-63
2021/03/01 01:50:30;;;;;;;22.05;14.27;;;;;;;;;;5094324;28;20487;-63
2021/03/01 01:52:56;;;;;;;18.75;13.68;;;;;;;;;;5094376;28;20482;-63
2021/03/01 01:55:22;;;;;;;20.85;13.75;;;;;;;;;;5093037;28;20043;-63
2021/03/01 01:57:48;;;;;;;20.20;13.55;;;;;;;;;;5094148;28;20502;-62
2021/03/01 02:02:54;;;;;;;19.48;13.88;;;;;;;;;;5094158;28;20028;-63
2021/03/01 02:05:24;;;;;;;20.50;13.88;;;;;;;;;;5092462;28;20376;-62
2021/03/01 02:08:10;;;;;;;20.83;13.55;;;;;;;;;;5093604;28;20020;-62
2021/03/01 02:10:48;;;;;;;21.65;14.32;;;;;;;;;;5093670;28;20507;-62
2021/03/01 02:13:22;;;;;;;20.13;13.70;;;;;;;;;;5092716;28;20073;-62
2021/03/01 02:15:48;;;;;;;23.38;14.05;;;;;;;;;;5093706;28;20472;-62
2021/03/01 02:18:13;;;;;;;23.17;14.35;;;;;;;;;;5092399;28;20027;-63
2021/03/01 02:20:47;;;;;;;24.50;15.13;;;;;;;;;;5092700;28;20039;-63
2021/03/01 02:23:13;;;;;;;20.00;13.73;;;;;;;;;;5093633;28;20020;-63
2021/03/01 02:25:59;;;;;;;22.98;15.10;;;;;;;;;;5093568;28;20026;-63
2021/03/01 02:28:33;;;;;;;20.80;14.73;;;;;;;;;;5093653;28;20549;-63
2021/03/01 02:31:02;;;;;;;23.35;14.98;;;;;;;;;;5093515;28;20031;-63
2021/03/01 02:33:30;;;;;;;24.52;15.40;;;;;;;;;;5093552;28;20426;-63
2021/03/01 02:35:59;;;;;;;22.77;14.93;;;;;;;;;;5093287;28;20036;-63
2021/03/01 02:38:26;;;;;;;21.70;14.95;;;;;;;;;;5093611;28;20016;-63
2021/03/01 02:40:57;;;;;;;20.38;14.75;;;;;;;;;;5092206;28;20028;-63
2021/03/01 02:43:25;;;;;;;22.77;14.90;;;;;;;;;;5093469;28;20035;-63
2021/03/01 02:45:50;;;;;;;26.08;15.68;;;;;;;;;;5093315;28;20024;-62
2021/03/01 02:48:17;;;;;;;23.48;14.98;;;;;;;;;;5093291;28;20069;-63
2021/03/01 02:50:44;;;;;;;19.70;14.60;;;;;;;;;;5093316;28;20016;-63
2021/03/01 02:53:10;;;;;;;24.63;15.65;;;;;;;;;;5093419;28;20059;-63
2021/03/01 02:55:36;;;;;;;22.92;14.80;;;;;;;;;;5092023;28;20016;-63
2021/03/01 02:58:02;;;;;;;23.63;15.00;;;;;;;;;;5093199;28;20028;-63
2021/03/01 03:00:28;;;;;;;25.67;15.60;;;;;;;;;;5093094;28;20020;-62
2021/03/01 03:02:54;;;;;;;22.20;13.75;;;;;;;;;;5091874;28;20036;-63
2021/03/01 03:05:21;;;;;;;24.90;14.98;;;;;;;;;;5093061;28;20379;-63
2021/03/01 03:07:47;;;;;;;21.58;14.68;;;;;;;;;;5093002;28;20111;-63
2021/03/01 03:10:17;;;;;;;23.90;15.27;;;;;;;;;;5091805;28;20028;-63
2021/03/01 03:12:44;;;;;;;22.70;15.37;;;;;;;;;;5091784;28;20043;-62
2021/03/01 03:15:13;;;;;;;22.08;14.88;;;;;;;;;;5091945;28;20464;-62
2021/03/01 03:17:38;;;;;;;22.38;15.63;;;;;;;;;;5094838;28;20056;-62
2021/03/01 03:20:05;;;;;;;22.60;14.73;;;;;;;;;;5097055;28;20474;-62
2021/03/01 03:22:30;;;;;;;23.83;15.02;;;;;;;;;;5097146;28;20028;-62
2021/03/01 03:24:56;;;;;;;21.77;15.63;;;;;;;;;;5097222;28;20024;-62
2021/03/01 03:27:21;;;;;;;22.33;14.68;;;;;;;;;;5097106;28;20032;-62
2021/03/01 03:29:47;;;;;;;23.70;15.15;;;;;;;;;;5097018;28;20027;-62
2021/03/01 03:32:12;;;;;;;23.60;15.38;;;;;;;;;;5097168;28;20543;-62
2021/03/01 03:34:38;;;;;;;22.75;14.63;;;;;;;;;;5096998;28;20050;-62
2021/03/01 03:37:11;;;;;;;19.92;14.55;;;;;;;;;;5096787;28;20391;-62
2021/03/01 03:39:41;;;;;;;24.65;14.85;;;;;;;;;;5095743;28;20028;-62
2021/03/01 03:42:07;;;;;;;21.52;15.00;;;;;;;;;;5096799;28;20384;-62
2021/03/01 03:44:35;;;;;;;20.90;14.73;;;;;;;;;;5096704;28;20035;-62
2021/03/01 03:47:01;;;;;;;24.88;14.68;;;;;;;;;;5095450;28;20064;-62
2021/03/01 03:49:27;;;;;;;20.80;14.80;;;;;;;;;;5096795;28;20468;-62
2021/03/01 03:51:55;;;;;;;24.85;15.00;;;;;;;;;;5096728;28;20467;-62
2021/03/01 03:54:22;;;;;;;22.88;15.20;;;;;;;;;;5096653;28;20081;-62
2021/03/01 03:56:51;;;;;;;21.25;14.75;;;;;;;;;;5096510;28;20430;-62
2021/03/01 03:59:19;;;;;;;20.50;14.57;;;;;;;;;;5096435;28;20423;-63
2021/03/01 04:01:47;;;;;;;23.77;15.48;;;;;;;;;;5095886;28;20399;-63
2021/03/01 04:04:13;;;;;;;23.38;15.45;;;;;;;;;;5096291;28;20032;-62
2021/03/01 04:06:40;;;;;;;19.90;14.77;;;;;;;;;;5096205;28;20027;-62
2021/03/01 04:09:10;;;;;;;19.75;13.48;;;;;;;;;;5096357;28;20430;-62
2021/03/01 04:11:40;;;;;;;22.25;14.10;;;;;;;;;;5096223;28;20038;-63
2021/03/01 04:14:06;;;;;;;23.08;14.40;;;;;;;;;;5096282;28;20028;-63
2021/03/01 04:16:32;;;;;;;24.10;15.07;;;;;;;;;;5096106;28;20065;-63
2021/03/01 04:19:01;;;;;;;22.38;14.23;;;;;;;;;;5095614;28;20024;-63
2021/03/01 04:21:27;;;;;;;24.98;14.52;;;;;;;;;;5096082;28;20028;-62
2021/03/01 04:23:55;;;;;;;21.42;14.73;;;;;;;;;;5096107;28;20052;-63
2021/03/01 04:26:21;;;;;;;19.23;14.43;;;;;;;;;;5095941;28;20103;-63
2021/03/01 04:28:47;;;;;;;22.73;14.68;;;;;;;;;;5095037;28;20499;-63
2021/03/01 04:31:13;;;;;;;23.85;14.73;;;;;;;;;;5095942;28;20469;-63
2021/03/01 04:33:40;;;;;;;22.42;14.68;;;;;;;;;;5095844;28;20108;-64
2021/03/01 04:36:07;;;;;;;22.48;14.43;;;;;;;;;;5094568;28;20027;-63
2021/03/01 04:38:33;;;;;;;23.70;14.68;;;;;;;;;;5094372;28;20115;-63
2021/03/01 04:40:58;;;;;;;21.80;14.68;;;;;;;;;;5094481;28;20103;-63
2021/03/01 04:43:25;;;;;;;20.80;13.95;;;;;;;;;;5094444;28;20039;-63
2021/03/01 04:45:52;;;;;;;23.25;14.43;;;;;;;;;;5095588;28;20543;-63
2021/03/01 04:48:18;;;;;;;19.58;13.93;;;;;;;;;;5095441;28;20475;-63
2021/03/01 04:50:48;;;;;;;22.02;14.55;;;;;;;;;;5094204;28;20024;-63
2021/03/01 04:53:14;;;;;;;21.80;14.80;;;;;;;;;;5094211;28;20024;-62
2021/03/01 04:55:40;;;;;;;22.23;14.07;;;;;;;;;;5095740;28;20020;-63
2021/03/01 04:58:06;;;;;;;22.63;13.95;;;;;;;;;;5093974;28;20025;-62
2021/03/01 05:00:32;;;;;;;24.00;14.05;;;;;;;;;;5094112;28;20061;-62
2021/03/01 05:02:58;;;;;;;21.60;13.18;;;;;;;;;;5095308;28;20016;-62
2021/03/01 05:05:23;;;;;;;19.83;13.55;;;;;;;;;;5095236;28;20012;-62
2021/03/01 05:07:50;;;;;;;22.45;14.05;;;;;;;;;;5095120;28;20028;-62
2021/03/01 05:10:16;;;;;;;20.60;13.30;;;;;;;;;;5095143;28;20428;-62
2021/03/01 05:12:41;;;;;;;21.67;13.68;;;;;;;;;;5093832;28;20119;-62
2021/03/01 05:15:08;;;;;;;22.77;14.60;;;;;;;;;;5095022;28;20023;-62
2021/03/01 05:17:33;;;;;;;23.00;14.88;;;;;;;;;;5094885;28;20032;-62
2021/03/01 05:19:59;;;;;;;21.88;14.15;;;;;;;;;;5094675;28;20040;-62
2021/03/01 05:22:24;;;;;;;24.02;14.80;;;;;;;;;;5094820;28;20027;-61
2021/03/01 05:24:50;;;;;;;22.45;14.48;;;;;;;;;;5094809;28;20388;-62
2021/03/01 05:27:15;;;;;;;22.50;14.90;;;;;;;;;;5093488;28;20479;-61
2021/03/01 05:29:41;;;;;;;24.75;15.20;;;;;;;;;;5094735;28;20169;-62
2021/03/01 05:32:06;;;;;;;24.15;15.07;;;;;;;;;;5094658;28;20024;-61
2021/03/01 05:34:32;;;;;;;25.00;15.23;;;;;;;;;;5094791;28;20512;-62
2021/03/01 05:36:58;;;;;;;23.63;14.50;;;;;;;;;;5094556;28;20024;-62
2021/03/01 05:39:24;;;;;;;24.00;15.35;;;;;;;;;;5094494;28;20057;-62
2021/03/01 05:41:51;;;;;;;22.92;15.00;;;;;;;;;;5094414;28;20109;-62
2021/03/01 05:44:16;;;;;;;20.33;14.25;;;;;;;;;;5094578;28;20012;-62
2021/03/01 05:46:44;;;;;;;24.13;15.90;;;;;;;;;;5094426;28;20035;-62
2021/03/01 05:49:10;;;;;;;26.48;15.43;;;;;;;;;;5093020;28;20460;-62
2021/03/01 05:51:38;;;;;;;23.83;15.13;;;;;;;;;;5092793;28;20024;-62
2021/03/01 05:54:05;;;;;;;22.60;15.20;;;;;;;;;;5092262;28;20028;-62
2021/03/01 05:56:32;;;;;;;22.92;15.50;;;;;;;;;;5093041;28;20082;-62
2021/03/01 05:58:57;;;;;;;22.13;15.43;;;;;;;;;;5092846;28;20384;-62
2021/03/01 06:01:24;;;;;;;25.40;15.68;;;;;;;;;;5092463;28;20028;-62
2021/03/01 06:03:49;;;;;;;23.77;14.10;;;;;;;;;;5096230;28;20023;-62
2021/03/01 06:06:15;;;;;;;23.70;15.38;;;;;;;;;;5102245;28;20473;-62
2021/03/01 06:08:40;;;;;;;22.10;14.68;;;;;;;;;;5094458;28;20023;-62
2021/03/01 06:11:07;;;;;;;23.13;15.07;;;;;;;;;;5100837;28;20035;-62
2021/03/01 06:13:37;;;;;;;23.42;14.50;;;;;;;;;;5097861;28;20020;-62
2021/03/01 06:16:04;;;;;;;24.07;13.53;;;;;;;;;;5097051;28;20101;-62
2021/03/01 06:18:29;;;;;;;25.50;14.27;;;;;;;;;;5093653;28;20040;-63
2021/03/01 06:21:09;;;;;;;23.75;14.77;;;;;;;;;;5096692;28;20047;-63
2021/03/01 06:23:36;;;;;;;23.63;14.68;;;;;;;;;;5092638;28;20082;-63
2021/03/01 06:26:20;;;;;;;21.90;13.73;;;;;;;;;;5094028;28;20012;-63
2021/03/01 06:28:47;;;;;;;24.25;14.80;;;;;;;;;;5104175;28;20038;-63
2021/03/01 06:31:32;;;;;;;24.60;14.73;;;;;;;;;;5105841;28;20012;-64
2021/03/01 06:34:36;;;;;;;23.00;13.57;;;;;;;;;;5095011;28;20121;-64
2021/03/01 06:37:04;;;;;;;19.75;13.07;;;;;;;;;;5041346;28;20025;-63
2021/03/01 06:39:43;;;;;;;22.25;14.25;;;;;;;;;;5051397;28;20373;-63
2021/03/01 06:42:21;;;;;;;23.45;14.18;;;;;;;;;;5068418;28;20070;-63
2021/03/01 06:44:46;;;;;;;20.90;13.63;;;;;;;;;;5098139;28;20383;-63
2021/03/01 06:47:12;;;;;;;23.20;14.43;;;;;;;;;;5108870;28;20024;-62
2021/03/01 06:49:39;;;;;;;21.73;13.02;;;;;;;;;;5101310;28;20024;-63
2021/03/01 06:52:05;;;;;;;23.23;13.98;;;;;;;;;;5101217;28;20038;-63
2021/03/01 06:54:31;;;;;;;22.33;14.02;;;;;;;;;;5100201;28;20027;-63
2021/03/01 06:56:57;;;;;;;21.73;13.95;;;;;;;;;;5103165;28;20536;-63
2021/03/01 06:59:23;;;;;;;20.55;13.05;;;;;;;;;;5101226;28;20047;-63
2021/03/01 07:01:49;;;;;;;23.70;13.73;;;;;;;;;;5099474;28;20047;-63
2021/03/01 07:04:24;;;;;;;23.73;14.50;;;;;;;;;;5102589;28;20426;-63
2021/03/01 07:06:51;;;;;;;21.95;14.10;;;;;;;;;;5099124;28;20114;-63
2021/03/01 07:09:18;;;;;;;24.70;13.70;;;;;;;;;;5107916;28;20032;-63
2021/03/01 07:11:46;;;;;;;27.77;15.43;;;;;;;;;;5108624;28;20045;-63
2021/03/01 07:14:13;;;;;;;23.73;14.65;;;;;;;;;;5112232;28;20448;-63
2021/03/01 07:16:42;;;;;;;23.52;14.35;;;;;;;;;;5104748;28;20085;-63
2021/03/01 07:19:09;;;;;;;24.88;14.63;;;;;;;;;;5091996;28;20065;-63
2021/03/01 07:21:36;;;;;;;25.98;14.65;;;;;;;;;;5094128;28;20032;-63
2021/03/01 07:24:03;;;;;;;24.08;14.35;;;;;;;;;;5101594;28;20052;-63
2021/03/01 07:26:28;;;;;;;24.58;15.15;;;;;;;;;;5104276;28;20038;-63
2021/03/01 07:29:14;;;;;;;24.95;15.65;;;;;;;;;;5110343;28;20027;-63
2021/03/01 07:31:42;;;;;;;26.08;15.65;;;;;;;;;;5109390;28;20036;-63
2021/03/01 07:34:08;;;;;;;17.85;11.38;;;;;;;;;;5109158;28;20023;-63
2021/03/01 07:36:35;;;;;;;24.15;14.65;;;;;;;;;;5095519;28;20024;-63
2021/03/01 07:39:02;;;;;;;21.80;14.88;;;;;;;;;;5097979;28;20053;-63
2021/03/01 07:41:28;;;;;;;21.75;13.88;;;;;;;;;;5092986;28;20032;-62
2021/03/01 07:43:56;;;;;;;21.35;13.43;;;;;;;;;;5093509;28;20030;-63
2021/03/01 07:46:26;;;;;;;21.80;13.70;;;;;;;;;;5099338;28;20451;-63
2021/03/01 07:48:51;;;;;;;23.33;14.23;;;;;;;;;;5102035;28;20027;-62
2021/03/01 07:51:37;;;;;;;20.38;13.25;;;;;;;;;;5100412;28;20472;-63
2021/03/01 07:54:02;;;;;;;21.02;12.93;;;;;;;;;;5095299;28;20028;-62
2021/03/01 07:56:28;;;;;;;14.38;9.95;;;;;;;;;;5093058;28;20154;-62
2021/03/01 07:58:57;;;;;;;16.33;11.07;;;;;;;;;;5092772;28;20020;-62
2021/03/01 08:01:22;;;;;;;17.67;10.68;;;;;;;;;;5098342;28;20117;-62
2021/03/01 08:03:48;;;;;;;18.73;11.00;;;;;;;;;;5109294;28;20023;-62
2021/03/01 08:06:14;;;;;;;15.88;10.90;;;;;;;;;;5111160;27;20023;-62
2021/03/01 08:08:44;;;;;;;16.23;10.10;;;;;;;;;;5101175;28;20042;-61
2021/03/01 08:11:10;;;;;;;13.65;9.80;;;;;;;;;;5087682;28;20035;-61
2021/03/01 08:13:36;;;;;;;15.40;10.40;;;;;;;;;;5082923;28;20525;-61
2021/03/01 08:16:18;;;;;;;15.40;10.65;;;;;;;;;;5094621;28;20063;-61
2021/03/01 08:18:51;;;;;;;15.32;10.35;;;;;;;;;;5086289;28;20511;-61
2021/03/01 08:21:17;;;;;;;23.95;14.13;;;;;;;;;;5096086;28;20379;-62
2021/03/01 08:23:42;;;;;;;26.17;15.60;;;;;;;;;;5089331;28;20012;-62
2021/03/01 08:26:08;;;;;;;27.02;16.10;;;;;;;;;;5093291;28;20023;-62
2021/03/01 08:28:35;;;;;;;23.42;14.85;;;;;;;;;;5086601;28;20016;-62
2021/03/01 08:31:07;;;;;;;25.88;15.73;;;;;;;;;;5089100;28;20025;-62
2021/03/01 08:33:32;;;;;;;24.38;15.80;;;;;;;;;;5095467;28;20032;-62
2021/03/01 08:36:01;;;;;;;20.80;13.88;;;;;;;;;;5099348;28;20425;-61
2021/03/01 08:38:42;;;;;;;23.60;14.73;;;;;;;;;;5098794;28;20016;-61
2021/03/01 08:41:10;;;;;;;22.70;15.05;;;;;;;;;;5100804;28;20028;-61
2021/03/01 08:43:37;;;;;;;25.52;14.20;;;;;;;;;;5101912;28;20024;-61
2021/03/01 08:46:22;;;;;;;26.98;14.80;;;;;;;;;;5101162;28;20016;-61
2021/03/01 08:48:49;;;;;;;30.35;16.85;;;;;;;;;;5096330;28;20027;-61
2021/03/01 08:51:15;;;;;;;27.15;15.43;;;;;;;;;;5102205;28;20114;-61
2021/03/01 08:53:40;;;;;;;25.88;15.35;;;;;;;;;;5104172;28;20085;-61
2021/03/01 08:56:19;;;;;;;22.10;13.93;;;;;;;;;;5107754;28;20388;-61
2021/03/01 08:58:45;;;;;;;20.13;13.20;;;;;;;;;;5098002;28;20039;-61
2021/03/01 09:01:10;;;;;;;21.65;14.10;;;;;;;;;;5103756;28;20028;-61
2021/03/01 09:03:37;;;;;;;23.27;13.63;;;;;;;;;;5101902;28;20032;-61
2021/03/01 09:06:02;;;;;;;24.38;14.63;;;;;;;;;;5113485;28;20015;-61
2021/03/01 09:08:30;;;;;;;22.75;13.63;;;;;;;;;;5115883;28;20032;-61
2021/03/01 09:11:00;;;;;;;18.92;13.15;;;;;;;;;;5110398;28;20024;-61
2021/03/01 09:13:26;;;;;;;19.90;12.30;;;;;;;;;;5110612;28;20035;-61
2021/03/01 09:15:51;;;;;;;15.95;10.68;;;;;;;;;;5099889;28;20012;-61
2021/03/01 09:18:17;;;;;;;16.90;12.02;;;;;;;;;;5095080;28;20024;-62
2021/03/01 09:20:45;;;;;;;26.73;16.52;;;;;;;;;;5095484;28;20055;-61
2021/03/01 09:23:11;;;;;;;22.15;15.13;;;;;;;;;;5106746;28;20107;-61
2021/03/01 09:25:37;;;;;;;23.15;13.88;;;;;;;;;;5094893;28;20077;-61
2021/03/01 09:28:04;;;;;;;20.98;12.43;;;;;;;;;;5094706;28;20024;-61
2021/03/01 09:30:29;;;;;;;19.58;12.88;;;;;;;;;;5104094;28;20110;-61
2021/03/01 09:32:58;;;;;;;22.35;13.30;;;;;;;;;;5082089;28;20062;-61
2021/03/01 09:35:24;;;;;;;20.38;12.73;;;;;;;;;;5098097;28;20023;-61
2021/03/01 09:37:50;;;;;;;21.60;12.80;;;;;;;;;;5107064;28;20526;-61
2021/03/01 09:40:17;;;;;;;22.67;14.30;;;;;;;;;;5103773;28;20538;-61
2021/03/01 09:42:45;;;;;;;27.92;14.93;;;;;;;;;;5100409;28;20028;-61
2021/03/01 09:45:14;;;;;;;34.10;16.58;;;;;;;;;;5097544;28;20027;-61
2021/03/01 09:47:40;;;;;;;70.07;25.67;;;;;;;;;;5107605;28;20020;-61
2021/03/01 09:50:06;;;;;;;17.20;11.27;;;;;;;;;;5109931;28;20031;-61
2021/03/01 09:52:31;;;;;;;14.60;9.52;;;;;;;;;;5111684;28;20020;-61
2021/03/01 09:54:57;;;;;;;18.52;12.07;;;;;;;;;;5104373;27;20499;-61
2021/03/01 09:57:28;;;;;;;23.17;11.63;;;;;;;;;;5106445;28;20047;-61
2021/03/01 09:59:53;;;;;;;25.52;12.52;;;;;;;;;;5112293;28;20023;-62
2021/03/01 10:02:20;;;;;;;50.00;19.10;;;;;;;;;;5113400;28;20071;-61
2021/03/01 10:04:46;;;;;;;23.77;13.70;;;;;;;;;;5114417;28;20024;-61
2021/03/01 10:07:16;;;;;;;18.13;12.05;;;;;;;;;;5114364;28;20038;-61
2021/03/01 10:09:41;;;;;;;19.35;13.05;;;;;;;;;;5114485;28;20034;-61
2021/03/01 10:12:07;;;;;;;21.92;12.70;;;;;;;;;;5114454;28;20383;-61
2021/03/01 10:14:32;;;;;;;16.63;11.48;;;;;;;;;;5114295;28;20103;-61
2021/03/01 10:16:58;;;;;;;13.70;9.75;;;;;;;;;;5112922;28;20468;-61
2021/03/01 10:19:25;;;;;;;17.77;11.82;;;;;;;;;;5113809;28;20058;-61
2021/03/01 10:21:51;;;;;;;17.17;11.32;;;;;;;;;;5113041;28;20019;-61
2021/03/01 10:24:17;;;;;;;17.95;12.40;;;;;;;;;;5113899;28;20378;-61
2021/03/01 10:26:49;;;;;;;18.20;11.75;;;;;;;;;;5113472;28;20510;-61
2021/03/01 10:29:14;;;;;;;26.73;14.75;;;;;;;;;;5105269;28;20062;-61
2021/03/01 10:31:43;;;;;;;14.35;9.88;;;;;;;;;;5098000;28;20055;-62
2021/03/01 10:34:13;;;;;;;43.10;18.35;;;;;;;;;;5110558;28;20028;-61
2021/03/01 10:36:39;;;;;;;28.38;14.57;;;;;;;;;;5106175;28;20060;-62
2021/03/01 10:39:14;;;;;;;505.33;150.15;;;;;;;;;;5104410;28;20024;-62
2021/03/01 10:41:41;;;;;;;156.80;50.75;;;;;;;;;;5102292;28;20019;-61
2021/03/01 10:44:08;;;;;;;24.23;14.32;;;;;;;;;;5099349;28;20051;-61
2021/03/01 10:46:36;;;;;;;15.70;10.57;;;;;;;;;;5099120;28;20491;-61
2021/03/01 10:49:03;;;;;;;17.00;11.23;;;;;;;;;;5093551;28;20107;-61
2021/03/01 10:51:28;;;;;;;12.00;9.30;;;;;;;;;;5093433;28;20024;-61
2021/03/01 10:53:54;;;;;;;17.80;10.80;;;;;;;;;;5093216;28;20024;-61
2021/03/01 10:56:20;;;;;;;13.50;9.18;;;;;;;;;;5093362;28;20516;-61
2021/03/01 10:58:45;;;;;;;12.40;9.18;;;;;;;;;;5093462;28;20065;-61
2021/03/01 11:01:14;;;;;;;14.55;10.02;;;;;;;;;;5093756;28;20028;-61
2021/03/01 11:03:40;;;;;;;12.68;8.88;;;;;;;;;;5093362;28;20105;-61
2021/03/01 11:06:06;;;;;;;12.65;8.65;;;;;;;;;;5093370;28;20051;-61
2021/03/01 11:08:31;;;;;;;12.05;9.38;;;;;;;;;;5093555;28;20102;-61
2021/03/01 11:10:57;;;;;;;13.50;9.02;;;;;;;;;;5093142;28;20498;-61
2021/03/01 11:13:22;;;;;;;17.40;11.73;;;;;;;;;;5093230;28;20020;-61
2021/03/01 11:15:48;;;;;;;15.57;9.85;;;;;;;;;;5093636;28;20027;-61
2021/03/01 11:18:13;;;;;;;14.32;9.25;;;;;;;;;;5092249;28;20035;-61
2021/03/01 11:20:39;;;;;;;15.85;10.52;;;;;;;;;;5093154;28;20396;-61
2021/03/01 11:23:06;;;;;;;12.05;9.20;;;;;;;;;;5093010;28;20491;-61
2021/03/01 11:25:34;;;;;;;12.45;8.00;;;;;;;;;;5093256;28;20069;-61
2021/03/01 11:28:00;;;;;;;13.82;9.73;;;;;;;;;;5093358;28;20024;-61
2021/03/01 11:30:26;;;;;;;24.67;14.15;;;;;;;;;;5091669;28;20036;-61
2021/03/01 11:32:52;;;;;;;14.18;10.20;;;;;;;;;;5091972;28;20051;-61
2021/03/01 11:35:17;;;;;;;14.38;9.70;;;;;;;;;;5092874;28;20060;-61
2021/03/01 11:37:44;;;;;;;13.52;9.98;;;;;;;;;;5093159;28;20111;-61
2021/03/01 11:40:10;;;;;;;12.65;9.85;;;;;;;;;;5095775;28;20043;-61
2021/03/01 11:42:35;;;;;;;12.63;8.95;;;;;;;;;;5095428;28;20457;-61
2021/03/01 11:45:01;;;;;;;15.05;10.07;;;;;;;;;;5102862;28;20031;-61
2021/03/01 11:47:27;;;;;;;15.60;10.63;;;;;;;;;;5099836;28;20471;-61
2021/03/01 11:49:52;;;;;;;15.18;10.38;;;;;;;;;;5100114;28;20024;-61
2021/03/01 11:52:18;;;;;;;14.38;11.13;;;;;;;;;;5105663;28;20032;-61
2021/03/01 11:54:43;;;;;;;16.15;11.75;;;;;;;;;;5101154;28;20111;-61
2021/03/01 11:57:09;;;;;;;9.60;8.57;;;;;;;;;;5114276;28;20329;-61
2021/03/01 11:59:34;;;;;;;14.10;10.02;;;;;;;;;;5117282;27;20039;-61
2021/03/01 12:02:00;;;;;;;13.93;9.82;;;;;;;;;;5117415;28;20088;-61
2021/03/01 12:04:25;;;;;;;13.30;9.40;;;;;;;;;;5117349;28;20016;-61
2021/03/01 12:06:51;;;;;;;17.73;14.55;;;;;;;;;;5117023;28;20103;-61
2021/03/01 12:09:16;;;;;;;13.63;10.70;;;;;;;;;;5116080;28;20067;-61
2021/03/01 12:11:42;;;;;;;14.23;10.77;;;;;;;;;;5108721;28;20032;-61
2021/03/01 12:14:08;;;;;;;12.48;10.23;;;;;;;;;;5102196;28;20379;-61
2021/03/01 12:16:33;;;;;;;13.98;10.93;;;;;;;;;;5100702;28;20024;-61
2021/03/01 12:18:59;;;;;;;14.68;10.93;;;;;;;;;;5098859;28;20040;-61
2021/03/01 12:21:24;;;;;;;12.98;9.40;;;;;;;;;;5102566;28;20119;-61
2021/03/01 12:23:50;;;;;;;11.02;9.23;;;;;;;;;;5103329;28;20024;-61
2021/03/01 12:26:16;;;;;;;26.73;16.13;;;;;;;;;;5105091;28;20062;-61
2021/03/01 12:28:41;;;;;;;14.45;10.63;;;;;;;;;;5105357;28;20028;-61
2021/03/01 12:31:06;;;;;;;44.67;25.70;;;;;;;;;;5096045;28;20020;-61
2021/03/01 12:33:32;;;;;;;18.33;12.68;;;;;;;;;;5100685;28;20106;-61
2021/03/01 12:35:57;;;;;;;35.70;20.55;;;;;;;;;;5108003;28;20004;-61
2021/03/01 12:38:23;;;;;;;30.85;19.55;;;;;;;;;;5102974;28;20472;-61
2021/03/01 12:40:49;;;;;;;23.88;14.02;;;;;;;;;;5106492;28;20019;-61
2021/03/01 12:43:14;;;;;;;38.50;21.45;;;;;;;;;;5111506;28;20023;-61
2021/03/01 12:45:40;;;;;;;324.75;133.10;;;;;;;;;;5108099;28;20016;-61
2021/03/01 12:48:07;;;;;;;90.60;44.08;;;;;;;;;;5106341;28;20043;-61
2021/03/01 12:50:33;;;;;;;351.20;140.27;;;;;;;;;;5099232;28;20023;-61
2021/03/01 12:52:58;;;;;;;425.30;169.27;;;;;;;;;;5094986;28;20519;-61
2021/03/01 12:55:24;;;;;;;35.05;19.17;;;;;;;;;;5105696;28;20119;-61
2021/03/01 12:57:50;;;;;;;78.60;35.60;;;;;;;;;;5104463;28;20089;-61
2021/03/01 13:00:15;;;;;;;20.83;14.13;;;;;;;;;;5096696;28;20022;-61
2021/03/01 13:02:41;;;;;;;113.68;44.58;;;;;;;;;;5102385;28;20024;-62
2021/03/01 13:05:07;;;;;;;429.85;203.73;;;;;;;;;;5099968;28;20024;-61
2021/03/01 13:07:32;;;;;;;941.75;382.98;;;;;;;;;;5094856;28;20103;-62
2021/03/01 13:09:59;;;;;;;146.50;59.75;;;;;;;;;;5098305;28;20119;-62
2021/03/01 13:12:25;;;;;;;26.48;15.32;;;;;;;;;;5111547;28;20132;-61
2021/03/01 13:14:50;;;;;;;14.18;10.60;;;;;;;;;;5115592;28;20424;-61
2021/03/01 13:17:16;;;;;;;16.00;11.13;;;;;;;;;;5115426;28;20451;-61
2021/03/01 13:19:42;;;;;;;16.65;11.50;;;;;;;;;;5105811;28;20039;-61
2021/03/01 13:22:07;;;;;;;26.40;14.35;;;;;;;;;;5096491;28;20030;-61
2021/03/01 13:24:33;;;;;;;815.28;269.67;;;;;;;;;;5100440;28;20357;-61
2021/03/01 13:27:00;;;;;;;321.63;97.85;;;;;;;;;;5111922;28;20024;-61
2021/03/01 13:29:26;;;;;;;237.73;87.10;;;;;;;;;;5115229;28;20034;-61
2021/03/01 13:31:52;;;;;;;878.88;326.15;;;;;;;;;;5108802;28;20024;-61
2021/03/01 13:34:18;;;;;;;473.25;151.63;;;;;;;;;;5102701;28;20023;-61
2021/03/01 13:36:43;;;;;;;407.05;126.55;;;;;;;;;;5100105;28;20032;-61
2021/03/01 13:39:09;;;;;;;857.15;298.02;;;;;;;;;;5094617;28;20046;-61
2021/03/01 13:41:34;;;;;;;315.00;90.15;;;;;;;;;;5094491;28;20063;-61
2021/03/01 13:44:03;;;;;;;120.97;65.70;;;;;;;;;;5094413;28;20024;-61
2021/03/01 13:46:28;;;;;;;218.52;65.40;;;;;;;;;;5094520;28;20172;-61
2021/03/01 13:48:54;;;;;;;183.48;57.13;;;;;;;;;;5094427;28;20040;-61
2021/03/01 13:51:19;;;;;;;23.63;14.50;;;;;;;;;;5094415;28;20028;-61
2021/03/01 13:53:45;;;;;;;39.03;19.70;;;;;;;;;;5094622;28;20078;-61
2021/03/01 13:56:10;;;;;;;298.23;92.60;;;;;;;;;;5092948;28;20094;-61
2021/03/01 13:58:36;;;;;;;103.88;40.58;;;;;;;;;;5094327;28;20019;-61
2021/03/01 14:01:01;;;;;;;116.88;40.67;;;;;;;;;;5094068;28;20059;-61
2021/03/01 14:03:27;;;;;;;26.92;16.27;;;;;;;;;;5093110;28;20020;-60
2021/03/01 14:05:52;;;;;;;17.60;13.60;;;;;;;;;;5094063;28;20490;-61
2021/03/01 14:08:19;;;;;;;513.15;202.65;;;;;;;;;;5092857;28;20012;-60
2021/03/01 14:10:44;;;;;;;710.03;304.23;;;;;;;;;;5097794;28;20041;-61
2021/03/01 14:13:10;;;;;;;372.95;145.75;;;;;;;;;;5099766;28;20028;-61
2021/03/01 14:15:36;;;;;;;708.85;309.92;;;;;;;;;;5099720;28;20071;-60
2021/03/01 14:18:01;;;;;;;129.13;58.05;;;;;;;;;;5114165;28;20023;-60